sensor_id;sensor_type;location;lat;lon;timestamp;temperature;humidity
31677;DHT22;18385;51.572;6.578;2023-08-06T00:00:09;20.40;63.80
31677;DHT22;18385;51.572;6.578;2023-08-06T00:02:34;20.40;63.90
31677;DHT22;18385;51.572;6.578;2023-08-06T00:05:00;20.40;64.10
31677;DHT22;18385;51.572;6.578;2023-08-06T00:07:26;20.40;64.10
31677;DHT22;18385;51.572;6.578;2023-08-06T00:09:52;20.40;64.10
31677;DHT22;18385;51.572;6.578;2023-08-06T00:12:17;20.40;64.20
31677;DHT22;18385;51.572;6.578;2023-08-06T00:14:43;20.40;64.20
31677;DHT22;18385;51.572;6.578;2023-08-06T00:17:09;20.40;64.30
31677;DHT22;18385;51.572;6.578;2023-08-06T00:19:35;20.40;64.30
31677;DHT22;18385;51.572;6.578;2023-08-06T00:22:00;20.40;64.50
31677;DHT22;18385;51.572;6.578;2023-08-06T00:24:27;20.40;64.50
31677;DHT22;18385;51.572;6.578;2023-08-06T00:26:53;20.30;64.60
31677;DHT22;18385;51.572;6.578;2023-08-06T00:29:19;20.30;64.70
31677;DHT22;18385;51.572;6.578;2023-08-06T00:31:44;20.40;64.80
31677;DHT22;18385;51.572;6.578;2023-08-06T00:34:10;20.30;64.70
31677;DHT22;18385;51.572;6.578;2023-08-06T00:36:35;20.30;64.70
31677;DHT22;18385;51.572;6.578;2023-08-06T00:39:01;20.30;64.80
31677;DHT22;18385;51.572;6.578;2023-08-06T00:41:28;20.40;65.00
31677;DHT22;18385;51.572;6.578;2023-08-06T00:43:53;20.40;65.00
31677;DHT22;18385;51.572;6.578;2023-08-06T00:46:19;20.40;65.00
31677;DHT22;18385;51.572;6.578;2023-08-06T00:48:46;20.40;65.00
31677;DHT22;18385;51.572;6.578;2023-08-06T00:51:12;20.40;65.00
31677;DHT22;18385;51.572;6.578;2023-08-06T00:53:39;20.40;65.00
31677;DHT22;18385;51.572;6.578;2023-08-06T00:56:06;20.40;65.10
31677;DHT22;18385;51.572;6.578;2023-08-06T00:58:33;20.40;65.10
31677;DHT22;18385;51.572;6.578;2023-08-06T01:00:59;20.40;65.10
31677;DHT22;18385;51.572;6.578;2023-08-06T01:03:25;20.40;65.10
31677;DHT22;18385;51.572;6.578;2023-08-06T01:05:51;20.40;65.00
31677;DHT22;18385;51.572;6.578;2023-08-06T01:11:31;20.40;65.10
31677;DHT22;18385;51.572;6.578;2023-08-06T01:14:06;20.30;65.40
31677;DHT22;18385;51.572;6.578;2023-08-06T01:16:33;20.30;65.50
31677;DHT22;18385;51.572;6.578;2023-08-06T01:19:00;20.20;65.50
31677;DHT22;18385;51.572;6.578;2023-08-06T01:21:26;20.30;65.60
31677;DHT22;18385;51.572;6.578;2023-08-06T01:23:51;20.30;65.60
31677;DHT22;18385;51.572;6.578;2023-08-06T01:30:11;20.40;65.40
31677;DHT22;18385;51.572;6.578;2023-08-06T01:32:40;20.40;65.60
31677;DHT22;18385;51.572;6.578;2023-08-06T01:35:09;20.40;65.60
31677;DHT22;18385;51.572;6.578;2023-08-06T01:37:36;20.40;65.60
31677;DHT22;18385;51.572;6.578;2023-08-06T01:40:08;20.40;65.60
31677;DHT22;18385;51.572;6.578;2023-08-06T01:42:35;20.40;65.70
31677;DHT22;18385;51.572;6.578;2023-08-06T01:45:01;20.40;65.60
31677;DHT22;18385;51.572;6.578;2023-08-06T01:47:26;20.40;65.60
31677;DHT22;18385;51.572;6.578;2023-08-06T01:49:52;20.40;65.60
31677;DHT22;18385;51.572;6.578;2023-08-06T01:52:18;20.40;65.60
31677;DHT22;18385;51.572;6.578;2023-08-06T01:54:43;20.50;65.70
31677;DHT22;18385;51.572;6.578;2023-08-06T01:57:10;20.40;65.80
31677;DHT22;18385;51.572;6.578;2023-08-06T01:59:35;20.40;65.80
31677;DHT22;18385;51.572;6.578;2023-08-06T02:02:01;20.40;65.80
31677;DHT22;18385;51.572;6.578;2023-08-06T02:04:27;20.40;65.80
31677;DHT22;18385;51.572;6.578;2023-08-06T02:06:52;20.40;65.90
31677;DHT22;18385;51.572;6.578;2023-08-06T02:09:18;20.40;65.90
31677;DHT22;18385;51.572;6.578;2023-08-06T02:11:44;20.40;65.80
31677;DHT22;18385;51.572;6.578;2023-08-06T02:14:10;20.40;65.90
31677;DHT22;18385;51.572;6.578;2023-08-06T02:16:38;20.30;66.00
31677;DHT22;18385;51.572;6.578;2023-08-06T02:19:04;20.30;66.10
31677;DHT22;18385;51.572;6.578;2023-08-06T02:21:30;20.30;66.20
31677;DHT22;18385;51.572;6.578;2023-08-06T02:23:55;20.30;66.30
31677;DHT22;18385;51.572;6.578;2023-08-06T02:26:21;20.30;66.30
31677;DHT22;18385;51.572;6.578;2023-08-06T02:28:47;20.20;66.30
31677;DHT22;18385;51.572;6.578;2023-08-06T02:31:14;20.30;66.40
31677;DHT22;18385;51.572;6.578;2023-08-06T02:33:39;20.30;66.50
31677;DHT22;18385;51.572;6.578;2023-08-06T02:36:05;20.20;66.40
31677;DHT22;18385;51.572;6.578;2023-08-06T02:38:34;20.20;66.50
31677;DHT22;18385;51.572;6.578;2023-08-06T02:41:02;20.30;67.30
31677;DHT22;18385;51.572;6.578;2023-08-06T02:43:29;20.20;66.50
31677;DHT22;18385;51.572;6.578;2023-08-06T02:45:58;20.20;66.60
31677;DHT22;18385;51.572;6.578;2023-08-06T02:48:24;20.20;66.70
31677;DHT22;18385;51.572;6.578;2023-08-06T02:50:50;20.20;66.70
31677;DHT22;18385;51.572;6.578;2023-08-06T02:53:16;20.20;66.70
31677;DHT22;18385;51.572;6.578;2023-08-06T02:55:47;20.20;66.70
31677;DHT22;18385;51.572;6.578;2023-08-06T02:58:15;20.20;66.70
31677;DHT22;18385;51.572;6.578;2023-08-06T03:00:47;20.20;66.80
31677;DHT22;18385;51.572;6.578;2023-08-06T03:03:24;20.10;66.80
31677;DHT22;18385;51.572;6.578;2023-08-06T03:05:55;20.20;66.90
31677;DHT22;18385;51.572;6.578;2023-08-06T03:08:31;20.20;66.90
31677;DHT22;18385;51.572;6.578;2023-08-06T03:10:57;20.10;66.80
31677;DHT22;18385;51.572;6.578;2023-08-06T03:13:23;20.10;66.90
31677;DHT22;18385;51.572;6.578;2023-08-06T03:15:59;20.00;66.90
31677;DHT22;18385;51.572;6.578;2023-08-06T03:18:26;20.00;67.90
31677;DHT22;18385;51.572;6.578;2023-08-06T03:20:52;19.90;67.00
31677;DHT22;18385;51.572;6.578;2023-08-06T03:23:19;19.90;67.00
31677;DHT22;18385;51.572;6.578;2023-08-06T03:25:45;19.80;67.10
31677;DHT22;18385;51.572;6.578;2023-08-06T03:28:13;19.80;67.20
31677;DHT22;18385;51.572;6.578;2023-08-06T03:30:39;19.80;67.30
31677;DHT22;18385;51.572;6.578;2023-08-06T03:33:06;19.70;67.30
31677;DHT22;18385;51.572;6.578;2023-08-06T03:35:31;19.70;67.40
31677;DHT22;18385;51.572;6.578;2023-08-06T03:37:57;19.70;67.40
31677;DHT22;18385;51.572;6.578;2023-08-06T03:40:23;19.60;67.40
31677;DHT22;18385;51.572;6.578;2023-08-06T03:42:48;19.60;67.60
31677;DHT22;18385;51.572;6.578;2023-08-06T03:45:14;19.50;67.60
31677;DHT22;18385;51.572;6.578;2023-08-06T03:47:41;19.50;67.70
31677;DHT22;18385;51.572;6.578;2023-08-06T03:50:07;19.50;67.80
31677;DHT22;18385;51.572;6.578;2023-08-06T03:52:33;19.40;67.80
31677;DHT22;18385;51.572;6.578;2023-08-06T03:54:59;19.40;67.90
31677;DHT22;18385;51.572;6.578;2023-08-06T03:57:24;19.40;68.00
31677;DHT22;18385;51.572;6.578;2023-08-06T03:59:50;19.40;68.00
31677;DHT22;18385;51.572;6.578;2023-08-06T04:02:16;19.50;68.10
31677;DHT22;18385;51.572;6.578;2023-08-06T04:04:42;19.50;68.00
31677;DHT22;18385;51.572;6.578;2023-08-06T04:07:07;19.50;68.00
31677;DHT22;18385;51.572;6.578;2023-08-06T04:09:33;19.40;68.00
31677;DHT22;18385;51.572;6.578;2023-08-06T04:11:59;19.40;68.00
31677;DHT22;18385;51.572;6.578;2023-08-06T04:14:27;19.40;68.00
31677;DHT22;18385;51.572;6.578;2023-08-06T04:16:53;19.30;68.00
31677;DHT22;18385;51.572;6.578;2023-08-06T04:19:18;19.20;68.10
31677;DHT22;18385;51.572;6.578;2023-08-06T04:21:44;19.20;68.20
31677;DHT22;18385;51.572;6.578;2023-08-06T04:24:10;19.20;68.30
31677;DHT22;18385;51.572;6.578;2023-08-06T04:26:36;19.20;68.40
31677;DHT22;18385;51.572;6.578;2023-08-06T04:29:01;19.20;68.40
31677;DHT22;18385;51.572;6.578;2023-08-06T04:31:28;19.30;68.50
31677;DHT22;18385;51.572;6.578;2023-08-06T04:33:54;19.30;68.50
31677;DHT22;18385;51.572;6.578;2023-08-06T04:36:20;19.30;69.20
31677;DHT22;18385;51.572;6.578;2023-08-06T04:38:45;19.30;68.40
31677;DHT22;18385;51.572;6.578;2023-08-06T04:41:14;19.30;68.40
31677;DHT22;18385;51.572;6.578;2023-08-06T04:43:40;19.30;68.40
31677;DHT22;18385;51.572;6.578;2023-08-06T04:46:05;19.30;68.40
31677;DHT22;18385;51.572;6.578;2023-08-06T04:48:32;19.30;68.40
31677;DHT22;18385;51.572;6.578;2023-08-06T04:50:57;19.30;68.40
31677;DHT22;18385;51.572;6.578;2023-08-06T04:53:23;19.30;68.40
31677;DHT22;18385;51.572;6.578;2023-08-06T04:55:48;19.30;69.20
31677;DHT22;18385;51.572;6.578;2023-08-06T04:58:14;19.30;68.50
31677;DHT22;18385;51.572;6.578;2023-08-06T05:00:40;19.40;68.60
31677;DHT22;18385;51.572;6.578;2023-08-06T05:03:06;19.40;68.60
31677;DHT22;18385;51.572;6.578;2023-08-06T05:05:31;19.50;68.60
31677;DHT22;18385;51.572;6.578;2023-08-06T05:07:57;19.50;68.50
31677;DHT22;18385;51.572;6.578;2023-08-06T05:10:26;19.50;68.50
31677;DHT22;18385;51.572;6.578;2023-08-06T05:12:52;19.60;68.40
31677;DHT22;18385;51.572;6.578;2023-08-06T05:15:18;19.70;68.40
31677;DHT22;18385;51.572;6.578;2023-08-06T05:17:44;19.80;68.40
31677;DHT22;18385;51.572;6.578;2023-08-06T05:20:10;19.80;68.30
31677;DHT22;18385;51.572;6.578;2023-08-06T05:22:36;19.80;68.30
31677;DHT22;18385;51.572;6.578;2023-08-06T05:25:02;19.80;68.30
31677;DHT22;18385;51.572;6.578;2023-08-06T05:27:27;19.80;68.30
31677;DHT22;18385;51.572;6.578;2023-08-06T05:29:55;19.80;68.20
31677;DHT22;18385;51.572;6.578;2023-08-06T05:32:24;19.90;68.20
31677;DHT22;18385;51.572;6.578;2023-08-06T05:34:49;19.90;68.30
31677;DHT22;18385;51.572;6.578;2023-08-06T05:37:15;20.00;68.30
31677;DHT22;18385;51.572;6.578;2023-08-06T05:39:41;20.00;68.90
31677;DHT22;18385;51.572;6.578;2023-08-06T05:42:06;20.00;68.10
31677;DHT22;18385;51.572;6.578;2023-08-06T05:44:32;20.10;68.20
31677;DHT22;18385;51.572;6.578;2023-08-06T05:46:58;20.10;68.20
31677;DHT22;18385;51.572;6.578;2023-08-06T05:49:23;20.30;68.30
31677;DHT22;18385;51.572;6.578;2023-08-06T05:51:49;20.40;68.10
31677;DHT22;18385;51.572;6.578;2023-08-06T05:54:14;20.50;67.80
31677;DHT22;18385;51.572;6.578;2023-08-06T05:56:40;20.60;67.60
31677;DHT22;18385;51.572;6.578;2023-08-06T05:59:06;20.60;68.20
31677;DHT22;18385;51.572;6.578;2023-08-06T06:01:31;20.60;67.30
31677;DHT22;18385;51.572;6.578;2023-08-06T06:03:57;20.70;67.30
31677;DHT22;18385;51.572;6.578;2023-08-06T06:06:23;20.80;67.30
31677;DHT22;18385;51.572;6.578;2023-08-06T06:08:49;21.00;67.30
31677;DHT22;18385;51.572;6.578;2023-08-06T06:11:15;21.20;67.10
31677;DHT22;18385;51.572;6.578;2023-08-06T06:13:40;21.50;66.90
31677;DHT22;18385;51.572;6.578;2023-08-06T06:16:06;21.80;66.00
31677;DHT22;18385;51.572;6.578;2023-08-06T06:18:32;21.80;66.10
31677;DHT22;18385;51.572;6.578;2023-08-06T06:20:57;22.00;65.90
31677;DHT22;18385;51.572;6.578;2023-08-06T06:23:23;22.00;65.40
31677;DHT22;18385;51.572;6.578;2023-08-06T06:25:49;22.00;65.40
31677;DHT22;18385;51.572;6.578;2023-08-06T06:28:19;22.20;65.60
31677;DHT22;18385;51.572;6.578;2023-08-06T06:30:44;22.50;65.40
31677;DHT22;18385;51.572;6.578;2023-08-06T06:33:10;22.70;65.00
31677;DHT22;18385;51.572;6.578;2023-08-06T06:35:36;22.90;64.50
31677;DHT22;18385;51.572;6.578;2023-08-06T06:38:02;23.00;64.00
31677;DHT22;18385;51.572;6.578;2023-08-06T06:40:28;22.90;63.80
31677;DHT22;18385;51.572;6.578;2023-08-06T06:42:54;22.80;63.70
31677;DHT22;18385;51.572;6.578;2023-08-06T06:45:19;22.70;63.70
31677;DHT22;18385;51.572;6.578;2023-08-06T06:47:45;22.50;63.70
31677;DHT22;18385;51.572;6.578;2023-08-06T06:50:11;22.20;64.20
31677;DHT22;18385;51.572;6.578;2023-08-06T06:52:37;22.10;64.80
31677;DHT22;18385;51.572;6.578;2023-08-06T06:55:03;22.20;65.40
31677;DHT22;18385;51.572;6.578;2023-08-06T06:57:29;22.30;64.90
31677;DHT22;18385;51.572;6.578;2023-08-06T06:59:54;22.40;64.50
31677;DHT22;18385;51.572;6.578;2023-08-06T07:02:20;22.50;64.40
31677;DHT22;18385;51.572;6.578;2023-08-06T07:04:46;22.60;63.90
31677;DHT22;18385;51.572;6.578;2023-08-06T07:07:11;22.50;63.60
31677;DHT22;18385;51.572;6.578;2023-08-06T07:09:37;22.50;63.80
31677;DHT22;18385;51.572;6.578;2023-08-06T07:12:03;22.50;63.60
31677;DHT22;18385;51.572;6.578;2023-08-06T07:14:29;22.50;63.50
31677;DHT22;18385;51.572;6.578;2023-08-06T07:16:55;22.60;63.40
31677;DHT22;18385;51.572;6.578;2023-08-06T07:19:21;22.70;63.30
31677;DHT22;18385;51.572;6.578;2023-08-06T07:21:46;22.70;63.20
31677;DHT22;18385;51.572;6.578;2023-08-06T07:24:12;22.70;63.00
31677;DHT22;18385;51.572;6.578;2023-08-06T07:26:38;22.80;63.00
31677;DHT22;18385;51.572;6.578;2023-08-06T07:29:03;22.80;62.60
31677;DHT22;18385;51.572;6.578;2023-08-06T07:31:29;22.80;62.50
31677;DHT22;18385;51.572;6.578;2023-08-06T07:33:55;22.80;62.60
31677;DHT22;18385;51.572;6.578;2023-08-06T07:36:20;22.90;62.90
31677;DHT22;18385;51.572;6.578;2023-08-06T07:38:46;23.00;62.60
31677;DHT22;18385;51.572;6.578;2023-08-06T07:41:14;23.10;62.10
31677;DHT22;18385;51.572;6.578;2023-08-06T07:43:39;22.90;62.10
31677;DHT22;18385;51.572;6.578;2023-08-06T07:46:05;23.00;62.30
31677;DHT22;18385;51.572;6.578;2023-08-06T07:48:31;23.10;62.30
31677;DHT22;18385;51.572;6.578;2023-08-06T07:50:57;23.20;62.10
31677;DHT22;18385;51.572;6.578;2023-08-06T07:53:24;23.30;61.80
31677;DHT22;18385;51.572;6.578;2023-08-06T07:55:53;23.30;61.30
31677;DHT22;18385;51.572;6.578;2023-08-06T07:58:19;23.30;61.30
31677;DHT22;18385;51.572;6.578;2023-08-06T08:00:45;23.30;61.10
31677;DHT22;18385;51.572;6.578;2023-08-06T08:03:12;23.20;60.80
31677;DHT22;18385;51.572;6.578;2023-08-06T08:05:42;23.20;60.90
31677;DHT22;18385;51.572;6.578;2023-08-06T08:08:07;23.30;61.20
31677;DHT22;18385;51.572;6.578;2023-08-06T08:10:34;23.30;61.00
31677;DHT22;18385;51.572;6.578;2023-08-06T08:13:01;23.30;60.70
31677;DHT22;18385;51.572;6.578;2023-08-06T08:15:28;23.30;60.40
31677;DHT22;18385;51.572;6.578;2023-08-06T08:17:54;23.20;60.50
31677;DHT22;18385;51.572;6.578;2023-08-06T08:20:20;23.20;60.60
31677;DHT22;18385;51.572;6.578;2023-08-06T08:22:46;23.10;60.50
31677;DHT22;18385;51.572;6.578;2023-08-06T08:25:12;22.90;60.60
31677;DHT22;18385;51.572;6.578;2023-08-06T08:27:38;22.80;60.70
31677;DHT22;18385;51.572;6.578;2023-08-06T08:30:04;22.80;61.00
31677;DHT22;18385;51.572;6.578;2023-08-06T08:32:30;22.80;60.90
31677;DHT22;18385;51.572;6.578;2023-08-06T08:34:55;22.80;60.70
31677;DHT22;18385;51.572;6.578;2023-08-06T08:37:22;22.80;60.70
31677;DHT22;18385;51.572;6.578;2023-08-06T08:39:48;22.70;60.60
31677;DHT22;18385;51.572;6.578;2023-08-06T08:42:15;22.70;60.70
31677;DHT22;18385;51.572;6.578;2023-08-06T08:44:42;22.70;60.70
31677;DHT22;18385;51.572;6.578;2023-08-06T08:47:08;22.60;60.80
31677;DHT22;18385;51.572;6.578;2023-08-06T08:49:36;22.60;60.80
31677;DHT22;18385;51.572;6.578;2023-08-06T08:52:03;22.50;60.90
31677;DHT22;18385;51.572;6.578;2023-08-06T08:54:32;22.50;61.10
31677;DHT22;18385;51.572;6.578;2023-08-06T08:56:58;22.60;61.00
31677;DHT22;18385;51.572;6.578;2023-08-06T08:59:24;22.60;60.80
31677;DHT22;18385;51.572;6.578;2023-08-06T09:01:50;22.50;60.80
31677;DHT22;18385;51.572;6.578;2023-08-06T09:04:19;22.60;60.80
31677;DHT22;18385;51.572;6.578;2023-08-06T09:06:50;22.60;60.70
31677;DHT22;18385;51.572;6.578;2023-08-06T09:09:26;22.60;60.70
31677;DHT22;18385;51.572;6.578;2023-08-06T09:11:55;22.50;60.50
31677;DHT22;18385;51.572;6.578;2023-08-06T09:14:25;22.60;60.70
31677;DHT22;18385;51.572;6.578;2023-08-06T09:16:51;22.60;60.60
31677;DHT22;18385;51.572;6.578;2023-08-06T09:19:17;22.70;60.70
31677;DHT22;18385;51.572;6.578;2023-08-06T09:21:44;22.80;60.70
31677;DHT22;18385;51.572;6.578;2023-08-06T09:24:14;23.00;60.50
31677;DHT22;18385;51.572;6.578;2023-08-06T09:26:41;23.10;60.20
31677;DHT22;18385;51.572;6.578;2023-08-06T09:29:08;23.30;60.00
31677;DHT22;18385;51.572;6.578;2023-08-06T09:31:43;23.50;59.60
31677;DHT22;18385;51.572;6.578;2023-08-06T09:34:21;23.50;59.40
31677;DHT22;18385;51.572;6.578;2023-08-06T09:36:53;23.70;59.30
31677;DHT22;18385;51.572;6.578;2023-08-06T09:39:21;23.70;58.90
31677;DHT22;18385;51.572;6.578;2023-08-06T09:41:48;23.80;59.10
31677;DHT22;18385;51.572;6.578;2023-08-06T09:44:18;23.90;58.80
31677;DHT22;18385;51.572;6.578;2023-08-06T09:46:51;23.80;58.70
31677;DHT22;18385;51.572;6.578;2023-08-06T09:49:18;24.00;58.50
31677;DHT22;18385;51.572;6.578;2023-08-06T09:51:45;24.20;58.40
31677;DHT22;18385;51.572;6.578;2023-08-06T09:54:12;24.30;58.10
31677;DHT22;18385;51.572;6.578;2023-08-06T09:56:38;24.40;58.00
31677;DHT22;18385;51.572;6.578;2023-08-06T09:59:07;24.50;57.70
31677;DHT22;18385;51.572;6.578;2023-08-06T10:01:34;24.60;57.50
31677;DHT22;18385;51.572;6.578;2023-08-06T10:04:04;24.80;57.40
31677;DHT22;18385;51.572;6.578;2023-08-06T10:06:34;24.90;57.10
31677;DHT22;18385;51.572;6.578;2023-08-06T10:09:04;24.90;56.80
31677;DHT22;18385;51.572;6.578;2023-08-06T10:11:30;24.80;57.10
31677;DHT22;18385;51.572;6.578;2023-08-06T10:14:12;24.90;56.90
31677;DHT22;18385;51.572;6.578;2023-08-06T10:16:42;25.00;56.80
31677;DHT22;18385;51.572;6.578;2023-08-06T10:19:12;24.90;56.60
31677;DHT22;18385;51.572;6.578;2023-08-06T10:21:39;24.60;56.60
31677;DHT22;18385;51.572;6.578;2023-08-06T10:24:07;24.30;56.70
31677;DHT22;18385;51.572;6.578;2023-08-06T10:26:36;24.10;57.00
31677;DHT22;18385;51.572;6.578;2023-08-06T10:29:37;23.90;57.20
31677;DHT22;18385;51.572;6.578;2023-08-06T10:32:03;23.70;57.40
31677;DHT22;18385;51.572;6.578;2023-08-06T10:37:21;23.60;58.00
31677;DHT22;18385;51.572;6.578;2023-08-06T10:39:51;23.60;58.00
31677;DHT22;18385;51.572;6.578;2023-08-06T10:42:27;23.50;57.80
31677;DHT22;18385;51.572;6.578;2023-08-06T10:45:15;23.00;57.40
31677;DHT22;18385;51.572;6.578;2023-08-06T10:47:42;22.60;57.80
31677;DHT22;18385;51.572;6.578;2023-08-06T10:50:11;22.40;58.50
31677;DHT22;18385;51.572;6.578;2023-08-06T10:52:37;22.30;58.70
31677;DHT22;18385;51.572;6.578;2023-08-06T10:55:03;22.40;58.80
31677;DHT22;18385;51.572;6.578;2023-08-06T10:57:29;22.50;58.80
31677;DHT22;18385;51.572;6.578;2023-08-06T10:59:54;22.40;58.10
31677;DHT22;18385;51.572;6.578;2023-08-06T11:02:20;22.10;58.50
31677;DHT22;18385;51.572;6.578;2023-08-06T11:04:46;22.00;58.60
31677;DHT22;18385;51.572;6.578;2023-08-06T11:07:13;22.00;58.60
31677;DHT22;18385;51.572;6.578;2023-08-06T11:09:39;21.80;58.80
31677;DHT22;18385;51.572;6.578;2023-08-06T11:12:18;21.80;59.00
31677;DHT22;18385;51.572;6.578;2023-08-06T11:14:49;21.80;59.20
31677;DHT22;18385;51.572;6.578;2023-08-06T11:17:14;21.80;59.40
31677;DHT22;18385;51.572;6.578;2023-08-06T11:19:41;21.70;59.20
31677;DHT22;18385;51.572;6.578;2023-08-06T11:22:06;21.50;59.00
31677;DHT22;18385;51.572;6.578;2023-08-06T11:24:32;21.30;59.30
31677;DHT22;18385;51.572;6.578;2023-08-06T11:26:58;21.10;59.40
31677;DHT22;18385;51.572;6.578;2023-08-06T11:29:24;20.70;59.80
31677;DHT22;18385;51.572;6.578;2023-08-06T11:31:49;20.40;60.10
31677;DHT22;18385;51.572;6.578;2023-08-06T11:34:15;20.10;60.60
31677;DHT22;18385;51.572;6.578;2023-08-06T11:36:42;19.70;61.50
31677;DHT22;18385;51.572;6.578;2023-08-06T11:39:09;19.30;62.50
31677;DHT22;18385;51.572;6.578;2023-08-06T11:41:36;19.10;63.30
31677;DHT22;18385;51.572;6.578;2023-08-06T11:44:03;18.90;63.70
31677;DHT22;18385;51.572;6.578;2023-08-06T11:46:29;18.80;64.00
31677;DHT22;18385;51.572;6.578;2023-08-06T11:49:14;18.60;64.20
31677;DHT22;18385;51.572;6.578;2023-08-06T11:51:40;18.40;64.60
31677;DHT22;18385;51.572;6.578;2023-08-06T11:54:05;18.40;64.70
31677;DHT22;18385;51.572;6.578;2023-08-06T11:56:32;18.30;64.60
31677;DHT22;18385;51.572;6.578;2023-08-06T11:58:58;18.30;64.70
31677;DHT22;18385;51.572;6.578;2023-08-06T12:01:25;18.30;64.70
31677;DHT22;18385;51.572;6.578;2023-08-06T12:03:51;18.30;64.80
31677;DHT22;18385;51.572;6.578;2023-08-06T12:06:16;18.20;65.00
31677;DHT22;18385;51.572;6.578;2023-08-06T12:08:42;18.20;65.10
31677;DHT22;18385;51.572;6.578;2023-08-06T12:11:07;18.20;65.10
31677;DHT22;18385;51.572;6.578;2023-08-06T12:13:34;18.20;65.10
31677;DHT22;18385;51.572;6.578;2023-08-06T12:15:59;18.20;65.20
31677;DHT22;18385;51.572;6.578;2023-08-06T12:18:25;18.30;65.30
31677;DHT22;18385;51.572;6.578;2023-08-06T12:20:51;18.30;65.40
31677;DHT22;18385;51.572;6.578;2023-08-06T12:23:17;18.30;65.40
31677;DHT22;18385;51.572;6.578;2023-08-06T12:25:43;18.40;65.40
31677;DHT22;18385;51.572;6.578;2023-08-06T12:28:10;18.40;65.50
31677;DHT22;18385;51.572;6.578;2023-08-06T12:30:36;18.30;65.50
31677;DHT22;18385;51.572;6.578;2023-08-06T12:33:01;18.40;65.70
31677;DHT22;18385;51.572;6.578;2023-08-06T12:35:27;18.40;65.80
31677;DHT22;18385;51.572;6.578;2023-08-06T12:37:53;18.40;65.80
31677;DHT22;18385;51.572;6.578;2023-08-06T12:40:20;18.40;65.90
31677;DHT22;18385;51.572;6.578;2023-08-06T12:42:46;18.40;66.00
31677;DHT22;18385;51.572;6.578;2023-08-06T12:45:12;18.50;66.10
31677;DHT22;18385;51.572;6.578;2023-08-06T12:47:38;18.60;66.10
31677;DHT22;18385;51.572;6.578;2023-08-06T12:50:04;18.60;66.00
31677;DHT22;18385;51.572;6.578;2023-08-06T12:52:29;18.60;65.90
31677;DHT22;18385;51.572;6.578;2023-08-06T12:54:55;18.60;66.00
31677;DHT22;18385;51.572;6.578;2023-08-06T12:57:21;18.50;66.00
31677;DHT22;18385;51.572;6.578;2023-08-06T12:59:46;18.60;66.20
31677;DHT22;18385;51.572;6.578;2023-08-06T13:02:13;18.50;66.20
31677;DHT22;18385;51.572;6.578;2023-08-06T13:04:39;18.50;66.20
31677;DHT22;18385;51.572;6.578;2023-08-06T13:07:05;18.60;66.30
31677;DHT22;18385;51.572;6.578;2023-08-06T13:09:32;18.60;66.20
31677;DHT22;18385;51.572;6.578;2023-08-06T13:11:58;18.80;66.00
31677;DHT22;18385;51.572;6.578;2023-08-06T13:14:25;18.80;65.80
31677;DHT22;18385;51.572;6.578;2023-08-06T13:16:51;18.80;65.70
31677;DHT22;18385;51.572;6.578;2023-08-06T13:19:16;18.90;65.50
31677;DHT22;18385;51.572;6.578;2023-08-06T13:24:17;19.00;65.50
31677;DHT22;18385;51.572;6.578;2023-08-06T13:26:42;19.00;65.60
31677;DHT22;18385;51.572;6.578;2023-08-06T13:29:08;19.10;65.50
31677;DHT22;18385;51.572;6.578;2023-08-06T13:31:33;19.10;65.30
31677;DHT22;18385;51.572;6.578;2023-08-06T13:33:59;19.20;65.20
31677;DHT22;18385;51.572;6.578;2023-08-06T13:36:26;19.40;65.30
31677;DHT22;18385;51.572;6.578;2023-08-06T13:38:52;19.40;64.80
31677;DHT22;18385;51.572;6.578;2023-08-06T13:41:17;19.50;64.90
31677;DHT22;18385;51.572;6.578;2023-08-06T13:43:43;19.60;64.60
31677;DHT22;18385;51.572;6.578;2023-08-06T13:46:12;19.60;64.50
31677;DHT22;18385;51.572;6.578;2023-08-06T13:48:42;19.60;64.40
31677;DHT22;18385;51.572;6.578;2023-08-06T13:51:08;19.50;64.50
31677;DHT22;18385;51.572;6.578;2023-08-06T13:53:34;19.60;64.80
31677;DHT22;18385;51.572;6.578;2023-08-06T13:56:00;19.80;64.50
31677;DHT22;18385;51.572;6.578;2023-08-06T13:58:26;19.80;64.30
31677;DHT22;18385;51.572;6.578;2023-08-06T14:00:52;19.80;64.30
31677;DHT22;18385;51.572;6.578;2023-08-06T14:03:20;19.90;64.20
31677;DHT22;18385;51.572;6.578;2023-08-06T14:05:46;20.00;64.30
31677;DHT22;18385;51.572;6.578;2023-08-06T14:08:11;20.00;64.00
31677;DHT22;18385;51.572;6.578;2023-08-06T14:10:37;20.00;64.00
31677;DHT22;18385;51.572;6.578;2023-08-06T14:13:03;20.00;64.10
31677;DHT22;18385;51.572;6.578;2023-08-06T14:15:28;20.10;64.10
31677;DHT22;18385;51.572;6.578;2023-08-06T14:17:54;20.10;64.00
31677;DHT22;18385;51.572;6.578;2023-08-06T14:20:20;20.10;64.00
31677;DHT22;18385;51.572;6.578;2023-08-06T14:22:45;20.10;64.10
31677;DHT22;18385;51.572;6.578;2023-08-06T14:25:11;20.10;64.10
31677;DHT22;18385;51.572;6.578;2023-08-06T14:27:37;20.30;64.30
31677;DHT22;18385;51.572;6.578;2023-08-06T14:30:06;20.40;64.10
31677;DHT22;18385;51.572;6.578;2023-08-06T14:32:32;20.60;63.90
31677;DHT22;18385;51.572;6.578;2023-08-06T14:34:58;20.60;63.40
31677;DHT22;18385;51.572;6.578;2023-08-06T14:37:24;20.60;63.40
31677;DHT22;18385;51.572;6.578;2023-08-06T14:39:51;20.80;63.80
31677;DHT22;18385;51.572;6.578;2023-08-06T14:42:17;20.80;63.30
31677;DHT22;18385;51.572;6.578;2023-08-06T14:44:43;20.80;63.20
31677;DHT22;18385;51.572;6.578;2023-08-06T14:47:09;20.80;63.10
31677;DHT22;18385;51.572;6.578;2023-08-06T14:49:34;20.80;63.50
31677;DHT22;18385;51.572;6.578;2023-08-06T14:52:00;20.80;63.30
31677;DHT22;18385;51.572;6.578;2023-08-06T14:54:27;20.90;63.70
31677;DHT22;18385;51.572;6.578;2023-08-06T14:56:53;21.00;63.40
31677;DHT22;18385;51.572;6.578;2023-08-06T14:59:19;21.10;63.20
31677;DHT22;18385;51.572;6.578;2023-08-06T15:01:44;21.00;62.90
31677;DHT22;18385;51.572;6.578;2023-08-06T15:04:10;21.20;63.30
31677;DHT22;18385;51.572;6.578;2023-08-06T15:06:35;21.60;63.80
31677;DHT22;18385;51.572;6.578;2023-08-06T15:09:01;22.10;63.00
31677;DHT22;18385;51.572;6.578;2023-08-06T15:11:27;22.30;62.10
31677;DHT22;18385;51.572;6.578;2023-08-06T15:13:53;22.40;61.80
31677;DHT22;18385;51.572;6.578;2023-08-06T15:16:19;22.40;61.80
31677;DHT22;18385;51.572;6.578;2023-08-06T15:18:44;22.50;61.70
31677;DHT22;18385;51.572;6.578;2023-08-06T15:21:10;22.50;61.50
31677;DHT22;18385;51.572;6.578;2023-08-06T15:23:36;22.30;61.50
31677;DHT22;18385;51.572;6.578;2023-08-06T15:26:02;22.20;61.50
31677;DHT22;18385;51.572;6.578;2023-08-06T15:28:28;22.00;61.70
31677;DHT22;18385;51.572;6.578;2023-08-06T15:30:54;21.70;61.80
31677;DHT22;18385;51.572;6.578;2023-08-06T15:33:21;21.60;62.30
31677;DHT22;18385;51.572;6.578;2023-08-06T15:35:47;21.30;62.40
31677;DHT22;18385;51.572;6.578;2023-08-06T15:38:13;21.20;62.90